sensor_id;sensor_type;location;lat;lon;timestamp;temperature;humidity
12229;DHT22;6177;52.402;9.800;2022-11-27T00:00:38;5.60;88.20
12229;DHT22;6177;52.402;9.800;2022-11-27T00:03:23;5.50;88.40
12229;DHT22;6177;52.402;9.800;2022-11-27T00:06:11;5.50;88.40
12229;DHT22;6177;52.402;9.800;2022-11-27T00:08:57;5.50;88.50
12229;DHT22;6177;52.402;9.800;2022-11-27T00:11:42;5.50;88.60
12229;DHT22;6177;52.402;9.800;2022-11-27T00:14:27;5.40;88.70
12229;DHT22;6177;52.402;9.800;2022-11-27T00:17:12;5.40;88.90
12229;DHT22;6177;52.402;9.800;2022-11-27T00:19:56;5.40;89.00
12229;DHT22;6177;52.402;9.800;2022-11-27T00:22:41;5.40;89.10
12229;DHT22;6177;52.402;9.800;2022-11-27T00:25:26;5.40;89.10
12229;DHT22;6177;52.402;9.800;2022-11-27T00:28:10;5.30;89.10
12229;DHT22;6177;52.402;9.800;2022-11-27T00:30:59;5.30;89.30
12229;DHT22;6177;52.402;9.800;2022-11-27T00:33:44;5.20;89.30
12229;DHT22;6177;52.402;9.800;2022-11-27T00:36:31;5.20;89.60
12229;DHT22;6177;52.402;9.800;2022-11-27T00:39:15;5.20;89.70
12229;DHT22;6177;52.402;9.800;2022-11-27T00:42:00;5.10;89.80
12229;DHT22;6177;52.402;9.800;2022-11-27T00:44:45;5.10;89.90
12229;DHT22;6177;52.402;9.800;2022-11-27T00:47:29;5.10;90.00
12229;DHT22;6177;52.402;9.800;2022-11-27T00:50:14;5.10;90.10
12229;DHT22;6177;52.402;9.800;2022-11-27T00:52:59;5.10;90.10
12229;DHT22;6177;52.402;9.800;2022-11-27T00:55:45;5.10;90.20
12229;DHT22;6177;52.402;9.800;2022-11-27T00:58:30;5.10;90.20
12229;DHT22;6177;52.402;9.800;2022-11-27T01:01:17;5.10;90.20
12229;DHT22;6177;52.402;9.800;2022-11-27T01:04:04;5.10;90.20
12229;DHT22;6177;52.402;9.800;2022-11-27T01:06:48;5.00;90.20
12229;DHT22;6177;52.402;9.800;2022-11-27T01:09:33;5.00;90.20
12229;DHT22;6177;52.402;9.800;2022-11-27T01:12:18;5.00;90.30
12229;DHT22;6177;52.402;9.800;2022-11-27T01:15:03;5.00;90.40
12229;DHT22;6177;52.402;9.800;2022-11-27T01:17:48;4.90;90.40
12229;DHT22;6177;52.402;9.800;2022-11-27T01:20:32;4.90;90.40
12229;DHT22;6177;52.402;9.800;2022-11-27T01:23:17;4.90;90.40
12229;DHT22;6177;52.402;9.800;2022-11-27T01:26:04;4.90;90.40
12229;DHT22;6177;52.402;9.800;2022-11-27T01:28:53;4.90;90.50
12229;DHT22;6177;52.402;9.800;2022-11-27T01:31:38;4.90;90.50
12229;DHT22;6177;52.402;9.800;2022-11-27T01:34:23;4.90;90.50
12229;DHT22;6177;52.402;9.800;2022-11-27T01:37:07;4.90;90.50
12229;DHT22;6177;52.402;9.800;2022-11-27T01:39:52;4.90;90.50
12229;DHT22;6177;52.402;9.800;2022-11-27T01:42:36;4.90;90.50
12229;DHT22;6177;52.402;9.800;2022-11-27T01:45:21;4.90;90.50
12229;DHT22;6177;52.402;9.800;2022-11-27T01:48:07;4.90;90.50
12229;DHT22;6177;52.402;9.800;2022-11-27T01:50:53;5.00;90.60
12229;DHT22;6177;52.402;9.800;2022-11-27T01:53:39;4.90;90.50
12229;DHT22;6177;52.402;9.800;2022-11-27T01:56:24;4.90;90.50
12229;DHT22;6177;52.402;9.800;2022-11-27T01:59:10;4.90;90.60
12229;DHT22;6177;52.402;9.800;2022-11-27T02:01:55;5.00;90.60
12229;DHT22;6177;52.402;9.800;2022-11-27T02:04:40;5.00;90.60
12229;DHT22;6177;52.402;9.800;2022-11-27T02:07:24;5.00;90.50
12229;DHT22;6177;52.402;9.800;2022-11-27T02:10:09;5.00;90.40
12229;DHT22;6177;52.402;9.800;2022-11-27T02:13:01;5.10;90.20
12229;DHT22;6177;52.402;9.800;2022-11-27T02:16:06;5.10;90.10
12229;DHT22;6177;52.402;9.800;2022-11-27T02:25:47;5.20;89.90
12229;DHT22;6177;52.402;9.800;2022-11-27T02:35:07;5.30;89.00
12229;DHT22;6177;52.402;9.800;2022-11-27T02:37:58;5.30;89.00
12229;DHT22;6177;52.402;9.800;2022-11-27T02:43:49;5.30;88.80
12229;DHT22;6177;52.402;9.800;2022-11-27T02:46:35;5.30;88.60
12229;DHT22;6177;52.402;9.800;2022-11-27T02:49:21;5.30;88.30
12229;DHT22;6177;52.402;9.800;2022-11-27T02:52:07;5.30;88.00
12229;DHT22;6177;52.402;9.800;2022-11-27T02:54:56;5.30;87.80
12229;DHT22;6177;52.402;9.800;2022-11-27T02:57:44;5.30;87.70
12229;DHT22;6177;52.402;9.800;2022-11-27T03:00:30;5.30;87.40
12229;DHT22;6177;52.402;9.800;2022-11-27T03:03:21;5.20;87.30
12229;DHT22;6177;52.402;9.800;2022-11-27T03:06:15;5.20;87.20
12229;DHT22;6177;52.402;9.800;2022-11-27T03:09:12;5.10;87.00
12229;DHT22;6177;52.402;9.800;2022-11-27T03:11:58;5.10;87.00
12229;DHT22;6177;52.402;9.800;2022-11-27T03:14:43;5.00;87.00
12229;DHT22;6177;52.402;9.800;2022-11-27T03:17:53;5.00;87.20
12229;DHT22;6177;52.402;9.800;2022-11-27T03:20:41;5.00;87.10
12229;DHT22;6177;52.402;9.800;2022-11-27T03:23:26;4.90;87.20
12229;DHT22;6177;52.402;9.800;2022-11-27T03:26:11;4.90;87.10
12229;DHT22;6177;52.402;9.800;2022-11-27T03:28:57;4.80;87.20
12229;DHT22;6177;52.402;9.800;2022-11-27T03:31:43;4.80;87.10
12229;DHT22;6177;52.402;9.800;2022-11-27T03:34:27;4.70;87.20
12229;DHT22;6177;52.402;9.800;2022-11-27T03:37:12;4.70;87.30
12229;DHT22;6177;52.402;9.800;2022-11-27T03:39:57;4.70;87.50
12229;DHT22;6177;52.402;9.800;2022-11-27T03:42:50;4.70;87.70
12229;DHT22;6177;52.402;9.800;2022-11-27T03:45:48;4.70;87.60
12229;DHT22;6177;52.402;9.800;2022-11-27T03:48:45;4.60;87.50
12229;DHT22;6177;52.402;9.800;2022-11-27T03:55:08;4.60;87.50
12229;DHT22;6177;52.402;9.800;2022-11-27T03:58:04;4.50;87.40
12229;DHT22;6177;52.402;9.800;2022-11-27T04:00:50;4.50;87.90
12229;DHT22;6177;52.402;9.800;2022-11-27T04:03:36;4.50;87.90
12229;DHT22;6177;52.402;9.800;2022-11-27T04:06:20;4.50;88.00
12229;DHT22;6177;52.402;9.800;2022-11-27T04:09:05;4.50;87.90
12229;DHT22;6177;52.402;9.800;2022-11-27T04:11:50;4.50;88.30
12229;DHT22;6177;52.402;9.800;2022-11-27T04:14:34;4.40;88.00
12229;DHT22;6177;52.402;9.800;2022-11-27T04:17:19;4.40;88.10
12229;DHT22;6177;52.402;9.800;2022-11-27T04:20:04;4.40;88.10
12229;DHT22;6177;52.402;9.800;2022-11-27T04:22:49;4.40;88.20
12229;DHT22;6177;52.402;9.800;2022-11-27T04:25:33;4.40;88.20
12229;DHT22;6177;52.402;9.800;2022-11-27T04:28:18;4.40;88.10
12229;DHT22;6177;52.402;9.800;2022-11-27T04:31:03;4.30;88.10
12229;DHT22;6177;52.402;9.800;2022-11-27T04:33:47;4.30;88.30
12229;DHT22;6177;52.402;9.800;2022-11-27T04:36:32;4.30;88.40
12229;DHT22;6177;52.402;9.800;2022-11-27T04:39:17;4.30;88.50
12229;DHT22;6177;52.402;9.800;2022-11-27T04:42:01;4.30;88.80
12229;DHT22;6177;52.402;9.800;2022-11-27T04:44:46;4.30;88.50
12229;DHT22;6177;52.402;9.800;2022-11-27T04:47:31;4.30;88.50
12229;DHT22;6177;52.402;9.800;2022-11-27T04:50:15;4.30;88.40
12229;DHT22;6177;52.402;9.800;2022-11-27T04:53:00;4.30;88.50
12229;DHT22;6177;52.402;9.800;2022-11-27T04:55:44;4.30;88.70
12229;DHT22;6177;52.402;9.800;2022-11-27T04:58:29;4.30;88.70
12229;DHT22;6177;52.402;9.800;2022-11-27T05:01:14;4.30;88.60
12229;DHT22;6177;52.402;9.800;2022-11-27T05:03:59;4.30;88.60
12229;DHT22;6177;52.402;9.800;2022-11-27T05:06:43;4.20;88.60
12229;DHT22;6177;52.402;9.800;2022-11-27T05:09:28;4.20;88.60
12229;DHT22;6177;52.402;9.800;2022-11-27T05:12:13;4.20;88.60
12229;DHT22;6177;52.402;9.800;2022-11-27T05:14:57;4.20;88.60
12229;DHT22;6177;52.402;9.800;2022-11-27T05:17:42;4.20;88.70
12229;DHT22;6177;52.402;9.800;2022-11-27T05:20:26;4.20;88.80
12229;DHT22;6177;52.402;9.800;2022-11-27T05:23:11;4.20;88.90
12229;DHT22;6177;52.402;9.800;2022-11-27T05:25:56;4.20;88.70
12229;DHT22;6177;52.402;9.800;2022-11-27T05:28:41;4.20;88.60
12229;DHT22;6177;52.402;9.800;2022-11-27T05:31:25;4.20;88.60
12229;DHT22;6177;52.402;9.800;2022-11-27T05:34:10;4.20;88.50
12229;DHT22;6177;52.402;9.800;2022-11-27T05:36:54;4.30;88.40
12229;DHT22;6177;52.402;9.800;2022-11-27T05:39:39;4.20;88.30
12229;DHT22;6177;52.402;9.800;2022-11-27T05:42:24;4.20;88.20
12229;DHT22;6177;52.402;9.800;2022-11-27T05:45:09;4.30;88.30
12229;DHT22;6177;52.402;9.800;2022-11-27T05:47:53;4.30;88.20
12229;DHT22;6177;52.402;9.800;2022-11-27T05:50:38;4.20;88.00
12229;DHT22;6177;52.402;9.800;2022-11-27T05:53:22;4.20;88.00
12229;DHT22;6177;52.402;9.800;2022-11-27T05:56:12;4.20;88.00
12229;DHT22;6177;52.402;9.800;2022-11-27T05:58:57;4.10;88.00
12229;DHT22;6177;52.402;9.800;2022-11-27T06:01:42;4.10;88.00
12229;DHT22;6177;52.402;9.800;2022-11-27T06:04:26;4.10;88.10
12229;DHT22;6177;52.402;9.800;2022-11-27T06:07:11;4.00;88.20
12229;DHT22;6177;52.402;9.800;2022-11-27T06:09:55;4.10;88.30
12229;DHT22;6177;52.402;9.800;2022-11-27T06:12:40;4.10;88.30
12229;DHT22;6177;52.402;9.800;2022-11-27T06:15:24;4.10;88.40
12229;DHT22;6177;52.402;9.800;2022-11-27T06:18:10;4.10;88.30
12229;DHT22;6177;52.402;9.800;2022-11-27T06:20:55;4.10;88.20
12229;DHT22;6177;52.402;9.800;2022-11-27T06:23:40;4.20;88.20
12229;DHT22;6177;52.402;9.800;2022-11-27T06:26:27;4.20;88.10
12229;DHT22;6177;52.402;9.800;2022-11-27T06:29:12;4.10;88.00
12229;DHT22;6177;52.402;9.800;2022-11-27T06:31:57;4.10;88.10
12229;DHT22;6177;52.402;9.800;2022-11-27T06:34:41;4.20;88.20
12229;DHT22;6177;52.402;9.800;2022-11-27T06:37:26;4.20;88.50
12229;DHT22;6177;52.402;9.800;2022-11-27T06:40:11;4.20;88.20
12229;DHT22;6177;52.402;9.800;2022-11-27T06:42:56;4.20;88.20
12229;DHT22;6177;52.402;9.800;2022-11-27T06:45:40;4.20;88.10
12229;DHT22;6177;52.402;9.800;2022-11-27T06:48:25;4.20;88.10
12229;DHT22;6177;52.402;9.800;2022-11-27T06:51:13;4.20;88.00
12229;DHT22;6177;52.402;9.800;2022-11-27T06:53:59;4.30;88.10
12229;DHT22;6177;52.402;9.800;2022-11-27T06:56:44;4.30;88.30
12229;DHT22;6177;52.402;9.800;2022-11-27T06:59:29;4.30;88.20
12229;DHT22;6177;52.402;9.800;2022-11-27T07:02:13;4.30;88.10
12229;DHT22;6177;52.402;9.800;2022-11-27T07:04:58;4.40;88.20
12229;DHT22;6177;52.402;9.800;2022-11-27T07:07:43;4.40;88.30
12229;DHT22;6177;52.402;9.800;2022-11-27T07:10:27;4.40;88.10
12229;DHT22;6177;52.402;9.800;2022-11-27T07:13:12;4.40;88.30
12229;DHT22;6177;52.402;9.800;2022-11-27T07:16:02;4.40;88.30
12229;DHT22;6177;52.402;9.800;2022-11-27T07:18:49;4.50;88.40
12229;DHT22;6177;52.402;9.800;2022-11-27T07:21:35;4.50;88.30
12229;DHT22;6177;52.402;9.800;2022-11-27T07:24:20;4.60;88.20
12229;DHT22;6177;52.402;9.800;2022-11-27T07:27:04;4.70;88.10
12229;DHT22;6177;52.402;9.800;2022-11-27T07:29:49;4.70;88.00
12229;DHT22;6177;52.402;9.800;2022-11-27T07:32:33;4.70;87.80
12229;DHT22;6177;52.402;9.800;2022-11-27T07:35:18;4.80;87.60
12229;DHT22;6177;52.402;9.800;2022-11-27T07:38:03;4.80;87.40
12229;DHT22;6177;52.402;9.800;2022-11-27T07:40:47;4.90;87.30
12229;DHT22;6177;52.402;9.800;2022-11-27T07:43:33;4.90;87.00
12229;DHT22;6177;52.402;9.800;2022-11-27T07:46:22;5.10;86.60
12229;DHT22;6177;52.402;9.800;2022-11-27T07:49:07;5.10;85.80
12229;DHT22;6177;52.402;9.800;2022-11-27T07:51:52;5.20;85.60
12229;DHT22;6177;52.402;9.800;2022-11-27T07:54:36;5.30;85.50
12229;DHT22;6177;52.402;9.800;2022-11-27T07:57:22;5.30;85.50
12229;DHT22;6177;52.402;9.800;2022-11-27T08:00:08;5.40;85.30
12229;DHT22;6177;52.402;9.800;2022-11-27T08:02:53;5.40;85.00
12229;DHT22;6177;52.402;9.800;2022-11-27T08:05:37;5.50;84.80
12229;DHT22;6177;52.402;9.800;2022-11-27T08:08:22;5.50;84.60
12229;DHT22;6177;52.402;9.800;2022-11-27T08:11:23;5.60;84.30
12229;DHT22;6177;52.402;9.800;2022-11-27T08:14:08;5.60;84.00
12229;DHT22;6177;52.402;9.800;2022-11-27T08:16:52;5.70;83.70
12229;DHT22;6177;52.402;9.800;2022-11-27T08:19:37;5.80;83.30
12229;DHT22;6177;52.402;9.800;2022-11-27T08:22:22;5.90;83.10
12229;DHT22;6177;52.402;9.800;2022-11-27T08:25:07;6.10;82.50
12229;DHT22;6177;52.402;9.800;2022-11-27T08:27:52;6.20;82.10
12229;DHT22;6177;52.402;9.800;2022-11-27T08:30:37;6.40;81.50
12229;DHT22;6177;52.402;9.800;2022-11-27T08:33:21;6.50;81.10
12229;DHT22;6177;52.402;9.800;2022-11-27T08:36:07;6.60;80.50
12229;DHT22;6177;52.402;9.800;2022-11-27T08:38:52;6.70;80.30
12229;DHT22;6177;52.402;9.800;2022-11-27T08:41:36;6.80;79.80
12229;DHT22;6177;52.402;9.800;2022-11-27T08:44:21;6.90;79.30
12229;DHT22;6177;52.402;9.800;2022-11-27T08:47:06;7.00;79.00
12229;DHT22;6177;52.402;9.800;2022-11-27T08:49:50;7.00;78.70
12229;DHT22;6177;52.402;9.800;2022-11-27T08:52:35;7.00;78.60
12229;DHT22;6177;52.402;9.800;2022-11-27T08:55:19;7.10;78.40
12229;DHT22;6177;52.402;9.800;2022-11-27T08:58:05;7.10;78.20
12229;DHT22;6177;52.402;9.800;2022-11-27T09:00:49;7.10;78.00
12229;DHT22;6177;52.402;9.800;2022-11-27T09:03:34;7.10;77.80
12229;DHT22;6177;52.402;9.800;2022-11-27T09:06:21;7.10;77.90
12229;DHT22;6177;52.402;9.800;2022-11-27T09:09:06;7.10;78.00
12229;DHT22;6177;52.402;9.800;2022-11-27T09:11:53;7.10;77.50
12229;DHT22;6177;52.402;9.800;2022-11-27T09:14:38;7.10;77.50
12229;DHT22;6177;52.402;9.800;2022-11-27T09:17:23;7.10;77.50
12229;DHT22;6177;52.402;9.800;2022-11-27T09:20:08;7.20;77.40
12229;DHT22;6177;52.402;9.800;2022-11-27T09:22:53;7.30;77.50
12229;DHT22;6177;52.402;9.800;2022-11-27T09:25:38;7.30;77.40
12229;DHT22;6177;52.402;9.800;2022-11-27T09:28:22;7.40;77.30
12229;DHT22;6177;52.402;9.800;2022-11-27T09:31:09;7.50;77.20
12229;DHT22;6177;52.402;9.800;2022-11-27T09:33:54;7.50;77.10
12229;DHT22;6177;52.402;9.800;2022-11-27T09:36:38;7.50;77.10
12229;DHT22;6177;52.402;9.800;2022-11-27T09:39:23;7.50;76.90
12229;DHT22;6177;52.402;9.800;2022-11-27T09:42:19;7.40;76.70
12229;DHT22;6177;52.402;9.800;2022-11-27T09:45:12;7.30;77.00
12229;DHT22;6177;52.402;9.800;2022-11-27T09:48:01;7.30;77.30
12229;DHT22;6177;52.402;9.800;2022-11-27T09:50:49;7.30;77.40
12229;DHT22;6177;52.402;9.800;2022-11-27T09:56:30;7.50;77.60
12229;DHT22;6177;52.402;9.800;2022-11-27T09:59:19;7.60;77.50
12229;DHT22;6177;52.402;9.800;2022-11-27T10:02:27;7.80;77.60
12229;DHT22;6177;52.402;9.800;2022-11-27T10:05:17;7.90;76.80
12229;DHT22;6177;52.402;9.800;2022-11-27T10:17:04;8.30;76.50
12229;DHT22;6177;52.402;9.800;2022-11-27T10:23:23;8.40;75.60
12229;DHT22;6177;52.402;9.800;2022-11-27T10:26:28;8.50;75.00
12229;DHT22;6177;52.402;9.800;2022-11-27T10:32:28;8.40;74.70
12229;DHT22;6177;52.402;9.800;2022-11-27T10:35:16;8.50;74.70
12229;DHT22;6177;52.402;9.800;2022-11-27T10:38:10;8.50;74.60
12229;DHT22;6177;52.402;9.800;2022-11-27T10:41:16;8.60;74.60
12229;DHT22;6177;52.402;9.800;2022-11-27T10:44:24;8.70;74.20
12229;DHT22;6177;52.402;9.800;2022-11-27T10:47:11;8.70;74.50
12229;DHT22;6177;52.402;9.800;2022-11-27T10:49:57;8.70;74.00
12229;DHT22;6177;52.402;9.800;2022-11-27T10:53:04;8.80;73.80
12229;DHT22;6177;52.402;9.800;2022-11-27T10:58:54;8.80;73.70
12229;DHT22;6177;52.402;9.800;2022-11-27T11:01:45;8.90;73.40
12229;DHT22;6177;52.402;9.800;2022-11-27T11:04:31;8.90;73.30
12229;DHT22;6177;52.402;9.800;2022-11-27T11:07:27;9.00;73.10
12229;DHT22;6177;52.402;9.800;2022-11-27T11:10:32;9.00;72.90
12229;DHT22;6177;52.402;9.800;2022-11-27T11:16:26;9.10;72.80
12229;DHT22;6177;52.402;9.800;2022-11-27T11:19:40;9.20;72.70
12229;DHT22;6177;52.402;9.800;2022-11-27T11:22:27;9.30;72.30
12229;DHT22;6177;52.402;9.800;2022-11-27T11:25:19;9.40;72.10
12229;DHT22;6177;52.402;9.800;2022-11-27T11:28:04;9.40;71.90
12229;DHT22;6177;52.402;9.800;2022-11-27T11:30:56;9.40;71.90
12229;DHT22;6177;52.402;9.800;2022-11-27T11:34:00;9.60;71.70
12229;DHT22;6177;52.402;9.800;2022-11-27T11:39:45;9.60;71.20
12229;DHT22;6177;52.402;9.800;2022-11-27T11:42:34;9.60;71.00
12229;DHT22;6177;52.402;9.800;2022-11-27T11:45:20;9.70;70.80
12229;DHT22;6177;52.402;9.800;2022-11-27T11:48:26;9.60;70.80
12229;DHT22;6177;52.402;9.800;2022-11-27T11:51:15;9.70;70.70
12229;DHT22;6177;52.402;9.800;2022-11-27T11:57:01;9.70;70.80
12229;DHT22;6177;52.402;9.800;2022-11-27T12:00:04;9.70;70.80
12229;DHT22;6177;52.402;9.800;2022-11-27T12:09:12;9.70;70.40
12229;DHT22;6177;52.402;9.800;2022-11-27T12:15:30;9.80;70.20
12229;DHT22;6177;52.402;9.800;2022-11-27T12:18:25;9.90;70.00
12229;DHT22;6177;52.402;9.800;2022-11-27T12:21:19;9.90;69.80
12229;DHT22;6177;52.402;9.800;2022-11-27T12:27:44;9.90;69.70
12229;DHT22;6177;52.402;9.800;2022-11-27T12:30:47;9.90;69.80
12229;DHT22;6177;52.402;9.800;2022-11-27T12:34:00;9.90;69.80
12229;DHT22;6177;52.402;9.800;2022-11-27T12:43:27;9.90;69.60
12229;DHT22;6177;52.402;9.800;2022-11-27T12:49:29;9.80;69.40
12229;DHT22;6177;52.402;9.800;2022-11-27T12:52:26;9.90;69.30
12229;DHT22;6177;52.402;9.800;2022-11-27T12:55:19;9.90;69.00
12229;DHT22;6177;52.402;9.800;2022-11-27T12:58:08;9.90;69.10
12229;DHT22;6177;52.402;9.800;2022-11-27T13:01:06;9.90;69.20
12229;DHT22;6177;52.402;9.800;2022-11-27T13:04:04;9.90;68.90
12229;DHT22;6177;52.402;9.800;2022-11-27T13:07:03;9.90;68.70
12229;DHT22;6177;52.402;9.800;2022-11-27T13:09:53;9.90;68.60
12229;DHT22;6177;52.402;9.800;2022-11-27T13:12:46;9.90;68.80
12229;DHT22;6177;52.402;9.800;2022-11-27T13:18:57;10.00;68.50
12229;DHT22;6177;52.402;9.800;2022-11-27T13:21:45;10.00;68.40
12229;DHT22;6177;52.402;9.800;2022-11-27T13:24:32;10.10;68.30
12229;DHT22;6177;52.402;9.800;2022-11-27T13:27:18;10.10;68.30
12229;DHT22;6177;52.402;9.800;2022-11-27T13:30:08;10.10;68.30
12229;DHT22;6177;52.402;9.800;2022-11-27T13:33:00;10.10;68.30
12229;DHT22;6177;52.402;9.800;2022-11-27T13:35:45;10.10;68.00
12229;DHT22;6177;52.402;9.800;2022-11-27T13:38:30;10.10;68.00
12229;DHT22;6177;52.402;9.800;2022-11-27T13:41:32;10.00;68.10
12229;DHT22;6177;52.402;9.800;2022-11-27T13:44:24;10.00;68.40
12229;DHT22;6177;52.402;9.800;2022-11-27T13:47:15;10.00;68.00
12229;DHT22;6177;52.402;9.800;2022-11-27T13:50:10;10.00;67.90
12229;DHT22;6177;52.402;9.800;2022-11-27T13:55:54;9.90;67.80
12229;DHT22;6177;52.402;9.800;2022-11-27T13:58:41;10.00;67.50
12229;DHT22;6177;52.402;9.800;2022-11-27T14:01:26;9.90;67.70
12229;DHT22;6177;52.402;9.800;2022-11-27T14:04:11;9.90;67.70
12229;DHT22;6177;52.402;9.800;2022-11-27T14:09:48;9.90;67.70
12229;DHT22;6177;52.402;9.800;2022-11-27T14:12:35;9.90;67.60
12229;DHT22;6177;52.402;9.800;2022-11-27T14:15:22;9.90;67.50
12229;DHT22;6177;52.402;9.800;2022-11-27T14:18:15;9.90;67.50
12229;DHT22;6177;52.402;9.800;2022-11-27T14:21:02;9.90;67.40
12229;DHT22;6177;52.402;9.800;2022-11-27T14:23:50;9.90;67.60
12229;DHT22;6177;52.402;9.800;2022-11-27T14:26:34;9.90;67.60
12229;DHT22;6177;52.402;9.800;2022-11-27T14:29:27;9.80;67.60
12229;DHT22;6177;52.402;9.800;2022-11-27T14:32:14;9.80;67.50
12229;DHT22;6177;52.402;9.800;2022-11-27T14:34:59;9.80;67.50
12229;DHT22;6177;52.402;9.800;2022-11-27T14:37:44;9.80;67.50
12229;DHT22;6177;52.402;9.800;2022-11-27T14:40:29;9.70;67.60
12229;DHT22;6177;52.402;9.800;2022-11-27T14:43:16;9.60;67.80
12229;DHT22;6177;52.402;9.800;2022-11-27T14:46:01;9.60;67.90
12229;DHT22;6177;52.402;9.800;2022-11-27T14:48:52;9.50;68.10
12229;DHT22;6177;52.402;9.800;2022-11-27T14:51:39;9.50;68.20
12229;DHT22;6177;52.402;9.800;2022-11-27T14:54:26;9.40;68.30
12229;DHT22;6177;52.402;9.800;2022-11-27T14:57:16;9.30;68.50
12229;DHT22;6177;52.402;9.800;2022-11-27T15:00:22;9.30;68.60
12229;DHT22;6177;52.402;9.800;2022-11-27T15:03:16;9.30;68.80
12229;DHT22;6177;52.402;9.800;2022-11-27T15:06:06;9.20;69.10
12229;DHT22;6177;52.402;9.800;2022-11-27T15:08:51;9.20;69.20
12229;DHT22;6177;52.402;9.800;2022-11-27T15:11:37;9.20;69.30
12229;DHT22;6177;52.402;9.800;2022-11-27T15:14:23;9.20;69.30
12229;DHT22;6177;52.402;9.800;2022-11-27T15:17:15;9.10;69.20
12229;DHT22;6177;52.402;9.800;2022-11-27T15:20:03;9.10;69.10
12229;DHT22;6177;52.402;9.800;2022-11-27T15:22:55;9.10;69.20
12229;DHT22;6177;52.402;9.800;2022-11-27T15:25:44;9.10;69.10
12229;DHT22;6177;52.402;9.800;2022-11-27T15:28:33;9.00;69.10
12229;DHT22;6177;52.402;9.800;2022-11-27T15:31:31;9.00;69.10
12229;DHT22;6177;52.402;9.800;2022-11-27T15:37:02;8.90;69.20
12229;DHT22;6177;52.402;9.800;2022-11-27T15:39:51;8.90;69.30
12229;DHT22;6177;52.402;9.800;2022-11-27T15:42:36;8.90;69.40
12229;DHT22;6177;52.402;9.800;2022-11-27T15:45:29;8.90;69.40
12229;DHT22;6177;52.402;9.800;2022-11-27T15:48:16;8.90;69.30
12229;DHT22;6177;52.402;9.800;2022-11-27T15:51:01;8.90;69.40
12229;DHT22;6177;52.402;9.800;2022-11-27T15:53:46;8.90;69.40
12229;DHT22;6177;52.402;9.800;2022-11-27T15:56:31;8.90;69.40
12229;DHT22;6177;52.402;9.800;2022-11-27T15:59:16;8.90;69.50
12229;DHT22;6177;52.402;9.800;2022-11-27T16:02:03;8.90;69.40
12229;DHT22;6177;52.402;9.800;2022-11-27T16:04:48;8.90;69.40
12229;DHT22;6177;52.402;9.800;2022-11-27T16:07:33;8.90;69.30
12229;DHT22;6177;52.402;9.800;2022-11-27T16:10:18;8.90;69.30
12229;DHT22;6177;52.402;9.800;2022-11-27T16:13:03;8.90;69.30
12229;DHT22;6177;52.402;9.800;2022-11-27T16:15:47;8.90;69.20
12229;DHT22;6177;52.402;9.800;2022-11-27T16:18:34;8.90;69.20
12229;DHT22;6177;52.402;9.800;2022-11-27T16:21:19;8.90;69.20
12229;DHT22;6177;52.402;9.800;2022-11-27T16:24:06;8.90;69.20
12229;DHT22;6177;52.402;9.800;2022-11-27T16:26:51;8.90;69.20
12229;DHT22;6177;52.402;9.800;2022-11-27T16:29:35;8.80;69.10
12229;DHT22;6177;52.402;9.800;2022-11-27T16:32:20;8.80;69.10
12229;DHT22;6177;52.402;9.800;2022-11-27T16:35:06;8.80;69.10
12229;DHT22;6177;52.402;9.800;2022-11-27T16:37:52;8.70;69.10
12229;DHT22;6177;52.402;9.800;2022-11-27T16:40:37;8.70;69.10
12229;DHT22;6177;52.402;9.800;2022-11-27T16:43:22;8.70;69.10
12229;DHT22;6177;52.402;9.800;2022-11-27T16:46:09;8.70;69.00
12229;DHT22;6177;52.402;9.800;2022-11-27T16:48:55;8.70;69.00
12229;DHT22;6177;52.402;9.800;2022-11-27T16:51:41;8.70;69.50
12229;DHT22;6177;52.402;9.800;2022-11-27T16:54:28;8.70;69.10
12229;DHT22;6177;52.402;9.800;2022-11-27T16:57:13;8.70;69.20
12229;DHT22;6177;52.402;9.800;2022-11-27T16:59:57;8.70;69.10
12229;DHT22;6177;52.402;9.800;2022-11-27T17:02:42;8.70;69.00
12229;DHT22;6177;52.402;9.800;2022-11-27T17:05:27;8.70;68.90
12229;DHT22;6177;52.402;9.800;2022-11-27T17:08:12;8.70;68.90
12229;DHT22;6177;52.402;9.800;2022-11-27T17:10:56;8.70;69.00
12229;DHT22;6177;52.402;9.800;2022-11-27T17:13:41;8.70;69.00
12229;DHT22;6177;52.402;9.800;2022-11-27T17:16:26;8.70;68.90
12229;DHT22;6177;52.402;9.800;2022-11-27T17:19:14;8.70;68.80
12229;DHT22;6177;52.402;9.800;2022-11-27T17:21:59;8.70;68.80
12229;DHT22;6177;52.402;9.800;2022-11-27T17:24:43;8.70;68.70
12229;DHT22;6177;52.402;9.800;2022-11-27T17:27:28;8.70;68.70
12229;DHT22;6177;52.402;9.800;2022-11-27T17:30:13;8.70;68.60
12229;DHT22;6177;52.402;9.800;2022-11-27T17:32:57;8.70;68.50
12229;DHT22;6177;52.402;9.800;2022-11-27T17:35:42;8.70;68.50
12229;DHT22;6177;52.402;9.800;2022-11-27T17:38:27;8.70;68.50
12229;DHT22;6177;52.402;9.800;2022-11-27T17:41:13;8.70;68.60
12229;DHT22;6177;52.402;9.800;2022-11-27T17:43:58;8.70;68.40
12229;DHT22;6177;52.402;9.800;2022-11-27T17:46:42;8.70;68.40
12229;DHT22;6177;52.402;9.800;2022-11-27T17:49:32;8.70;68.40
12229;DHT22;6177;52.402;9.800;2022-11-27T17:52:18;8.70;68.30
12229;DHT22;6177;52.402;9.800;2022-11-27T17:55:02;8.70;68.30
12229;DHT22;6177;52.402;9.800;2022-11-27T17:57:48;8.70;68.40
12229;DHT22;6177;52.402;9.800;2022-11-27T18:00:34;8.60;68.40
12229;DHT22;6177;52.402;9.800;2022-11-27T18:03:19;8.60;68.40
12229;DHT22;6177;52.402;9.800;2022-11-27T18:06:05;8.60;68.60
12229;DHT22;6177;52.402;9.800;2022-11-27T18:08:51;8.60;68.70
12229;DHT22;6177;52.402;9.800;2022-11-27T18:11:37;8.60;68.70
12229;DHT22;6177;52.402;9.800;2022-11-27T18:14:22;8.60;68.60
12229;DHT22;6177;52.402;9.800;2022-11-27T18:17:08;8.60;68.70
12229;DHT22;6177;52.402;9.800;2022-11-27T18:19:53;8.60;68.50
12229;DHT22;6177;52.402;9.800;2022-11-27T18:22:40;8.60;68.40
12229;DHT22;6177;52.402;9.800;2022-11-27T18:25:24;8.60;68.30
12229;DHT22;6177;52.402;9.800;2022-11-27T18:28:09;8.60;68.30
12229;DHT22;6177;52.402;9.800;2022-11-27T18:30:54;8.60;68.30
12229;DHT22;6177;52.402;9.800;2022-11-27T18:33:39;8.70;68.30
12229;DHT22;6177;52.402;9.800;2022-11-27T18:36:24;8.70;68.20
12229;DHT22;6177;52.402;9.800;2022-11-27T18:39:09;8.70;68.20
12229;DHT22;6177;52.402;9.800;2022-11-27T18:41:53;8.70;68.20
12229;DHT22;6177;52.402;9.800;2022-11-27T18:44:38;8.70;68.10
12229;DHT22;6177;52.402;9.800;2022-11-27T18:47:23;8.70;68.10
12229;DHT22;6177;52.402;9.800;2022-11-27T18:50:09;8.70;68.00
12229;DHT22;6177;52.402;9.800;2022-11-27T18:52:54;8.70;68.00
12229;DHT22;6177;52.402;9.800;2022-11-27T18:55:40;8.70;68.00
12229;DHT22;6177;52.402;9.800;2022-11-27T18:58:25;8.70;68.00
12229;DHT22;6177;52.402;9.800;2022-11-27T19:01:12;8.70;67.90
12229;DHT22;6177;52.402;9.800;2022-11-27T19:03:59;8.70;67.80
12229;DHT22;6177;52.402;9.800;2022-11-27T19:06:44;8.70;67.60
12229;DHT22;6177;52.402;9.800;2022-11-27T19:09:29;8.70;67.50
12229;DHT22;6177;52.402;9.800;2022-11-27T19:12:14;8.70;67.50
12229;DHT22;6177;52.402;9.800;2022-11-27T19:14:58;8.70;67.50
12229;DHT22;6177;52.402;9.800;2022-11-27T19:17:43;8.70;67.30
12229;DHT22;6177;52.402;9.800;2022-11-27T19:20:28;8.70;67.30
12229;DHT22;6177;52.402;9.800;2022-11-27T19:23:13;8.70;67.10
12229;DHT22;6177;52.402;9.800;2022-11-27T19:26:04;8.70;66.90
12229;DHT22;6177;52.402;9.800;2022-11-27T19:28:50;8.70;66.80
12229;DHT22;6177;52.402;9.800;2022-11-27T19:31:38;8.70;66.70
12229;DHT22;6177;52.402;9.800;2022-11-27T19:34:23;8.80;66.60
12229;DHT22;6177;52.402;9.800;2022-11-27T19:37:08;8.80;66.70